createdAt,value
2019-05-09T00:00:33.594Z,0.00
2019-05-09T00:01:33.568Z,0.00
2019-05-09T00:02:33.726Z,0.00
2019-05-09T00:03:33.460Z,0.00
2019-05-09T00:04:33.515Z,0.00
2019-05-09T00:05:33.577Z,0.00
2019-05-09T00:06:33.999Z,0.00
2019-05-09T00:07:33.741Z,0.00
2019-05-09T00:08:33.530Z,0.00
2019-05-09T00:09:33.585Z,0.00
2019-05-09T00:10:39.523Z,0.00
2019-05-09T00:11:33.650Z,0.00
2019-05-09T00:12:33.506Z,0.00
2019-05-09T00:13:33.965Z,0.00
2019-05-09T00:14:34.043Z,0.00
2019-05-09T00:15:33.229Z,0.00
2019-05-09T00:16:33.482Z,0.00
2019-05-09T00:17:33.772Z,0.00
2019-05-09T00:18:33.628Z,0.00
2019-05-09T00:19:33.387Z,0.00
2019-05-09T00:20:33.162Z,0.00
2019-05-09T00:21:33.302Z,0.00
2019-05-09T00:22:33.259Z,0.00
2019-05-09T00:23:33.207Z,0.00
2019-05-09T00:24:33.236Z,0.00
2019-05-09T00:25:33.866Z,0.00
2019-05-09T00:26:33.948Z,0.00
2019-05-09T00:27:33.207Z,0.00
2019-05-09T00:28:35.371Z,0.00
2019-05-09T00:29:33.476Z,0.00
2019-05-09T00:30:33.223Z,0.00
2019-05-09T00:31:33.817Z,0.00
2019-05-09T00:32:33.922Z,0.00
2019-05-09T00:33:34.073Z,0.00
2019-05-09T00:34:33.716Z,0.00
2019-05-09T00:35:33.682Z,0.00
2019-05-09T00:36:33.473Z,0.00
2019-05-09T00:37:33.038Z,0.00
2019-05-09T00:38:33.358Z,0.00
2019-05-09T00:39:33.985Z,0.00
2019-05-09T00:40:34.014Z,0.00
2019-05-09T00:41:33.014Z,0.00
2019-05-09T00:42:33.364Z,0.00
2019-05-09T00:43:31.639Z,0.00
2019-05-09T00:44:33.773Z,0.00
2019-05-09T00:45:33.316Z,0.00
2019-05-09T00:46:33.959Z,0.00
2019-05-09T00:47:32.990Z,0.00
2019-05-09T00:48:33.693Z,0.00
2019-05-09T00:49:34.148Z,0.00
2019-05-09T00:50:31.559Z,0.00
2019-05-09T00:51:33.335Z,0.00
2019-05-09T00:52:33.418Z,0.00
2019-05-09T00:53:33.736Z,0.00
2019-05-09T00:54:33.507Z,0.00
2019-05-09T00:55:33.233Z,0.00
2019-05-09T00:56:33.142Z,0.00
2019-05-09T00:57:33.469Z,0.00
2019-05-09T00:58:33.388Z,0.00
2019-05-09T00:59:33.250Z,0.00
2019-05-09T01:00:33.351Z,0.00
2019-05-09T01:01:31.439Z,0.00
2019-05-09T01:02:31.449Z,0.00
2019-05-09T01:03:33.742Z,0.00
2019-05-09T01:04:33.267Z,0.00
2019-05-09T01:05:31.426Z,0.00
2019-05-09T01:06:31.992Z,0.00
2019-05-09T01:07:33.483Z,0.00
2019-05-09T01:08:33.390Z,0.00
2019-05-09T01:09:33.354Z,0.00
2019-05-09T01:10:31.341Z,0.00
2019-05-09T01:11:33.302Z,0.00
2019-05-09T01:12:31.359Z,0.00
2019-05-09T01:13:31.317Z,0.00
2019-05-09T01:14:31.297Z,0.00
2019-05-09T01:15:33.362Z,0.00
2019-05-09T01:16:33.308Z,0.00
2019-05-09T01:17:33.365Z,0.00
2019-05-09T01:18:33.167Z,0.00
2019-05-09T01:19:31.247Z,0.00
2019-05-09T01:20:33.181Z,0.00
2019-05-09T01:21:33.264Z,0.00
2019-05-09T01:22:33.166Z,0.00
2019-05-09T01:23:31.203Z,0.00
2019-05-09T01:24:31.202Z,0.00
2019-05-09T01:25:33.352Z,0.00
2019-05-09T01:26:33.169Z,0.00
2019-05-09T01:27:31.175Z,0.00
2019-05-09T01:28:31.155Z,0.00
2019-05-09T01:29:31.152Z,0.00
2019-05-09T01:30:33.422Z,0.00
2019-05-09T01:31:33.127Z,0.00
2019-05-09T01:32:31.138Z,0.00
2019-05-09T01:33:33.146Z,0.00
2019-05-09T01:34:33.077Z,0.00
2019-05-09T01:35:31.068Z,0.00
2019-05-09T01:36:31.060Z,0.00
2019-05-09T01:37:31.062Z,0.00
2019-05-09T01:38:31.054Z,0.00
2019-05-09T01:39:31.025Z,0.00
2019-05-09T01:40:33.103Z,0.00
2019-05-09T01:41:33.937Z,0.00
2019-05-09T01:42:30.992Z,0.00
2019-05-09T01:43:31.002Z,0.00
2019-05-09T01:44:33.302Z,0.00
2019-05-09T01:45:30.968Z,0.00
2019-05-09T01:46:30.947Z,0.00
2019-05-09T01:47:30.953Z,0.00
2019-05-09T01:48:30.954Z,0.00
2019-05-09T01:49:30.920Z,0.00
2019-05-09T01:50:30.912Z,0.00
2019-05-09T01:51:30.914Z,0.00
2019-05-09T01:52:30.886Z,0.00
2019-05-09T01:53:30.926Z,0.00
2019-05-09T01:54:33.093Z,0.00
2019-05-09T01:55:30.859Z,0.00
2019-05-09T01:56:30.846Z,0.00
2019-05-09T01:57:30.852Z,0.00
2019-05-09T01:58:30.820Z,0.00
2019-05-09T01:59:30.823Z,0.00
2019-05-09T02:00:33.108Z,0.00
2019-05-09T02:01:30.785Z,0.00
2019-05-09T02:02:30.956Z,0.00
2019-05-09T02:03:30.772Z,0.00
2019-05-09T02:04:30.787Z,0.00
2019-05-09T02:05:30.745Z,0.00
2019-05-09T02:06:30.732Z,0.00
2019-05-09T02:07:30.726Z,0.00
2019-05-09T02:08:30.722Z,0.00
2019-05-09T02:09:30.724Z,0.00
2019-05-09T02:10:30.688Z,0.00
2019-05-09T02:11:41.651Z,0.00
2019-05-09T02:12:33.795Z,0.00
2019-05-09T02:13:30.680Z,0.00
2019-05-09T02:14:30.656Z,0.00
2019-05-09T02:15:30.668Z,0.00
2019-05-09T02:16:30.631Z,0.00
2019-05-09T02:17:30.611Z,0.00
2019-05-09T02:18:30.622Z,0.00
2019-05-09T02:19:30.591Z,0.00
2019-05-09T02:20:30.599Z,0.00
2019-05-09T02:21:30.572Z,0.00
2019-05-09T02:22:30.555Z,0.00
2019-05-09T02:23:30.571Z,0.00
2019-05-09T02:24:30.537Z,0.00
2019-05-09T02:25:30.539Z,0.00
2019-05-09T02:26:30.513Z,0.00
2019-05-09T02:27:30.499Z,0.00
2019-05-09T02:28:30.493Z,0.00
2019-05-09T02:29:30.482Z,0.00
2019-05-09T02:30:30.502Z,0.00
2019-05-09T02:31:30.464Z,0.00
2019-05-09T02:32:30.473Z,0.00
2019-05-09T02:33:30.440Z,0.00
2019-05-09T02:34:30.454Z,0.00
2019-05-09T02:35:38.813Z,0.00
2019-05-09T02:36:31.402Z,0.00
2019-05-09T02:37:30.402Z,0.00
2019-05-09T02:38:30.386Z,0.00
2019-05-09T02:39:30.382Z,0.00
2019-05-09T02:40:30.377Z,0.00
2019-05-09T02:41:30.359Z,0.00
2019-05-09T02:42:30.343Z,0.00
2019-05-09T02:43:30.359Z,0.00
2019-05-09T02:44:30.316Z,0.00
2019-05-09T02:45:30.325Z,0.00
2019-05-09T02:46:30.300Z,0.00
2019-05-09T02:47:30.287Z,0.00
2019-05-09T02:48:30.294Z,0.00
2019-05-09T02:49:30.264Z,0.00
2019-05-09T02:50:30.267Z,0.00
2019-05-09T02:51:30.258Z,0.00
2019-05-09T02:52:30.251Z,0.00
2019-05-09T02:53:30.249Z,0.00
2019-05-09T02:54:30.252Z,0.00
2019-05-09T02:55:30.219Z,0.00
2019-05-09T02:56:30.200Z,0.00
2019-05-09T02:57:30.179Z,0.00
2019-05-09T02:58:30.164Z,0.00
2019-05-09T02:59:30.162Z,0.00
2019-05-09T03:00:30.157Z,0.00
2019-05-09T03:01:30.167Z,0.00
2019-05-09T03:02:30.130Z,0.00
2019-05-09T03:03:30.200Z,0.00
2019-05-09T03:04:30.103Z,0.00
2019-05-09T03:05:30.105Z,0.00
2019-05-09T03:06:30.080Z,0.00
2019-05-09T03:07:30.106Z,0.00
2019-05-09T03:08:30.052Z,0.00
2019-05-09T03:09:30.074Z,0.00
2019-05-09T03:10:30.037Z,0.00
2019-05-09T03:11:30.038Z,0.00
2019-05-09T03:12:35.364Z,0.00
2019-05-09T03:13:31.011Z,0.00
2019-05-09T03:14:29.996Z,0.00
2019-05-09T03:15:29.983Z,0.00
2019-05-09T03:16:29.977Z,0.00
2019-05-09T03:17:29.985Z,0.00
2019-05-09T03:18:29.954Z,0.00
2019-05-09T03:19:30.121Z,0.00
2019-05-09T03:20:29.943Z,0.00
2019-05-09T03:21:30.154Z,0.00
2019-05-09T03:22:29.909Z,0.00
2019-05-09T03:23:29.918Z,0.00
2019-05-09T03:24:29.891Z,0.00
2019-05-09T03:25:29.870Z,0.00
2019-05-09T03:26:29.874Z,0.00
2019-05-09T03:27:29.848Z,0.00
2019-05-09T03:28:29.855Z,0.00
2019-05-09T03:29:29.827Z,0.00
2019-05-09T03:30:29.821Z,0.00
2019-05-09T03:31:30.184Z,0.00
2019-05-09T03:32:29.998Z,5.62
2019-05-09T03:33:35.279Z,5.62
2019-05-09T03:34:30.825Z,5.62
2019-05-09T03:35:29.764Z,5.62
2019-05-09T03:36:29.761Z,5.62
2019-05-09T03:37:29.748Z,5.62
2019-05-09T03:38:29.749Z,5.62
2019-05-09T03:39:29.734Z,5.62
2019-05-09T03:40:29.706Z,5.62
2019-05-09T03:41:29.722Z,5.62
2019-05-09T03:42:39.624Z,11.25
2019-05-09T03:43:30.674Z,11.25
2019-05-09T03:44:29.689Z,11.25
2019-05-09T03:45:29.659Z,11.25
2019-05-09T03:46:29.639Z,11.25
2019-05-09T03:47:29.637Z,16.88
2019-05-09T03:48:29.676Z,16.88
2019-05-09T03:49:29.658Z,16.88
2019-05-09T03:50:29.602Z,16.88
2019-05-09T03:51:29.599Z,22.50
2019-05-09T03:52:29.583Z,22.50
2019-05-09T03:53:29.583Z,22.50
2019-05-09T03:54:29.587Z,22.50
2019-05-09T03:55:29.593Z,28.12
2019-05-09T03:56:29.536Z,28.12
2019-05-09T03:57:29.525Z,28.12
2019-05-09T03:58:29.511Z,28.12
2019-05-09T03:59:29.523Z,28.12
2019-05-09T04:00:29.493Z,33.75
2019-05-09T04:01:29.478Z,33.75
2019-05-09T04:02:29.471Z,39.38
2019-05-09T04:03:29.455Z,39.38
2019-05-09T04:04:29.577Z,39.38
2019-05-09T04:05:29.952Z,45.00
2019-05-09T04:06:29.443Z,45.00
2019-05-09T04:07:29.880Z,56.25
2019-05-09T04:08:29.396Z,56.25
2019-05-09T04:09:29.391Z,61.88
2019-05-09T04:10:29.404Z,61.88
2019-05-09T04:11:29.368Z,56.25
2019-05-09T04:12:29.361Z,56.25
2019-05-09T04:13:29.346Z,61.88
2019-05-09T04:14:29.331Z,61.88
2019-05-09T04:15:29.339Z,61.88
2019-05-09T04:16:29.323Z,61.88
2019-05-09T04:17:29.311Z,61.88
2019-05-09T04:18:29.297Z,61.88
2019-05-09T04:19:29.289Z,56.25
2019-05-09T04:20:29.293Z,56.25
2019-05-09T04:21:29.260Z,56.25
2019-05-09T04:22:29.247Z,61.88
2019-05-09T04:23:29.243Z,67.50
2019-05-09T04:24:29.234Z,67.50
2019-05-09T04:25:37.654Z,67.50
2019-05-09T04:26:29.202Z,73.12
2019-05-09T04:27:29.871Z,73.12
2019-05-09T04:28:29.179Z,78.75
2019-05-09T04:29:29.183Z,78.75
2019-05-09T04:30:29.184Z,78.75
2019-05-09T04:31:29.145Z,78.75
2019-05-09T04:32:29.135Z,73.12
2019-05-09T04:33:29.128Z,73.12
2019-05-09T04:34:29.147Z,78.75
2019-05-09T04:35:29.129Z,78.75
2019-05-09T04:36:29.097Z,90.00
2019-05-09T04:37:31.173Z,95.62
2019-05-09T04:38:29.066Z,101.25
2019-05-09T04:39:29.088Z,106.88
2019-05-09T04:40:31.874Z,106.88
2019-05-09T04:41:29.063Z,106.88
2019-05-09T04:42:29.036Z,106.88
2019-05-09T04:43:35.752Z,106.88
2019-05-09T04:44:30.002Z,106.88
2019-05-09T04:45:33.246Z,106.88
2019-05-09T04:46:30.025Z,106.88
2019-05-09T04:47:28.987Z,106.88
2019-05-09T04:48:28.971Z,106.88
2019-05-09T04:49:30.102Z,106.88
2019-05-09T04:50:28.963Z,106.88
2019-05-09T04:51:28.959Z,106.88
2019-05-09T04:52:28.925Z,106.88
2019-05-09T04:53:28.929Z,106.88
2019-05-09T04:54:28.899Z,106.88
2019-05-09T04:55:28.889Z,112.50
2019-05-09T04:56:28.898Z,112.50
2019-05-09T04:57:28.872Z,118.12
2019-05-09T04:58:28.889Z,118.12
2019-05-09T04:59:28.897Z,118.12
2019-05-09T05:00:28.834Z,112.50
2019-05-09T05:01:28.887Z,112.50
2019-05-09T05:02:28.843Z,112.50
2019-05-09T05:03:28.808Z,101.25
2019-05-09T05:04:28.795Z,95.62
2019-05-09T05:05:28.781Z,90.00
2019-05-09T05:06:28.788Z,84.38
2019-05-09T05:07:28.895Z,84.38
2019-05-09T05:08:29.504Z,90.00
2019-05-09T05:09:28.739Z,101.25
2019-05-09T05:10:28.753Z,112.50
2019-05-09T05:11:28.774Z,118.12
2019-05-09T05:12:28.702Z,123.75
2019-05-09T05:13:29.735Z,123.75
2019-05-09T05:14:28.681Z,118.12
2019-05-09T05:15:28.673Z,112.50
2019-05-09T05:16:28.721Z,112.50
2019-05-09T05:17:30.729Z,112.50
2019-05-09T05:18:28.704Z,123.75
2019-05-09T05:19:31.429Z,146.25
2019-05-09T05:20:28.611Z,168.75
2019-05-09T05:21:28.742Z,191.25
2019-05-09T05:22:28.633Z,208.12
2019-05-09T05:23:28.584Z,225.00
2019-05-09T05:24:28.569Z,230.62
2019-05-09T05:25:28.637Z,219.38
2019-05-09T05:26:28.675Z,208.12
2019-05-09T05:27:28.595Z,191.25
2019-05-09T05:28:28.526Z,180.00
2019-05-09T05:29:28.572Z,163.12
2019-05-09T05:30:28.567Z,157.50
2019-05-09T05:32:29.564Z,140.62
2019-05-09T05:33:28.481Z,140.62
2019-05-09T05:34:28.463Z,135.00
2019-05-09T05:35:28.545Z,135.00
2019-05-09T05:36:28.440Z,129.38
2019-05-09T05:37:28.467Z,129.38
2019-05-09T05:38:28.417Z,135.00
2019-05-09T05:39:28.533Z,140.62
2019-05-09T05:40:33.175Z,146.25
2019-05-09T05:41:29.403Z,151.88
2019-05-09T05:42:28.530Z,157.50
2019-05-09T05:43:40.858Z,168.75
2019-05-09T05:44:29.351Z,180.00
2019-05-09T05:45:28.540Z,196.88
2019-05-09T05:46:28.695Z,208.12
2019-05-09T05:47:29.318Z,225.00
2019-05-09T05:48:28.317Z,230.62
2019-05-09T05:49:28.308Z,241.88
2019-05-09T05:50:28.297Z,247.50
2019-05-09T05:51:28.278Z,241.88
2019-05-09T05:52:28.285Z,241.88
2019-05-09T05:53:28.254Z,230.62
2019-05-09T05:54:28.270Z,225.00
2019-05-09T05:55:28.236Z,213.75
2019-05-09T05:56:28.247Z,202.50
2019-05-09T05:57:28.223Z,185.62
2019-05-09T05:58:28.413Z,174.38
2019-05-09T05:59:28.773Z,163.12
2019-05-09T06:00:28.652Z,157.50
2019-05-09T06:01:28.177Z,163.12
2019-05-09T06:02:28.266Z,168.75
2019-05-09T06:03:28.380Z,174.38
2019-05-09T06:04:28.133Z,174.38
2019-05-09T06:05:28.122Z,168.75
2019-05-09T06:06:28.122Z,163.12
2019-05-09T06:07:28.595Z,157.50
2019-05-09T06:08:28.237Z,151.88
2019-05-09T06:10:32.065Z,151.88
2019-05-09T06:11:32.040Z,157.50
2019-05-09T06:12:32.024Z,168.75
2019-05-09T06:13:32.035Z,185.62
2019-05-09T06:14:32.002Z,208.12
2019-05-09T06:15:32.000Z,225.00
2019-05-09T06:16:31.986Z,241.88
2019-05-09T06:17:31.976Z,258.75
2019-05-09T06:18:32.121Z,275.62
2019-05-09T06:19:31.944Z,286.88
2019-05-09T06:20:31.982Z,298.12
2019-05-09T06:21:31.929Z,309.38
2019-05-09T06:22:31.952Z,320.62
2019-05-09T06:23:32.051Z,337.50
2019-05-09T06:24:31.919Z,343.12
2019-05-09T06:25:31.937Z,348.75
2019-05-09T06:26:31.876Z,354.38
2019-05-09T06:27:31.858Z,360.00
2019-05-09T06:28:31.852Z,365.62
2019-05-09T06:29:31.861Z,371.25
2019-05-09T06:30:32.098Z,376.88
2019-05-09T06:31:31.848Z,382.50
2019-05-09T06:32:31.811Z,371.25
2019-05-09T06:33:31.812Z,360.00
2019-05-09T06:34:31.795Z,348.75
2019-05-09T06:35:31.776Z,343.12
2019-05-09T06:36:31.772Z,337.50
2019-05-09T06:37:31.752Z,326.25
2019-05-09T06:38:31.782Z,320.62
2019-05-09T06:39:31.749Z,315.00
2019-05-09T06:40:31.750Z,315.00
2019-05-09T06:41:31.715Z,315.00
2019-05-09T06:42:31.697Z,315.00
2019-05-09T06:43:31.682Z,309.38
2019-05-09T06:44:31.697Z,303.75
2019-05-09T06:45:31.677Z,298.12
2019-05-09T06:46:32.602Z,292.50
2019-05-09T06:47:31.654Z,292.50
2019-05-09T06:48:31.661Z,292.50
2019-05-09T06:49:32.118Z,292.50
2019-05-09T06:50:31.602Z,315.00
2019-05-09T06:51:31.600Z,343.12
2019-05-09T06:52:31.586Z,360.00
2019-05-09T06:53:31.579Z,365.62
2019-05-09T06:54:31.628Z,360.00
2019-05-09T06:55:31.557Z,343.12
2019-05-09T06:56:31.559Z,337.50
2019-05-09T06:57:31.540Z,337.50
2019-05-09T06:58:31.543Z,343.12
2019-05-09T06:59:31.538Z,348.75
2019-05-09T07:00:31.513Z,348.75
2019-05-09T07:01:31.500Z,348.75
2019-05-09T07:02:31.484Z,343.12
2019-05-09T07:03:31.480Z,337.50
2019-05-09T07:04:31.490Z,320.62
2019-05-09T07:05:31.502Z,315.00
2019-05-09T07:06:31.457Z,320.62
2019-05-09T07:07:31.451Z,326.25
2019-05-09T07:08:31.578Z,326.25
2019-05-09T07:09:31.434Z,337.50
2019-05-09T07:10:31.395Z,348.75
2019-05-09T07:11:31.378Z,360.00
2019-05-09T07:12:31.372Z,371.25
2019-05-09T07:13:31.362Z,382.50
2019-05-09T07:14:33.901Z,371.25
2019-05-09T07:15:31.362Z,360.00
2019-05-09T07:16:31.340Z,360.00
2019-05-09T07:17:31.977Z,365.62
2019-05-09T07:18:31.303Z,365.62
2019-05-09T07:19:31.319Z,365.62
2019-05-09T07:20:31.277Z,365.62
2019-05-09T07:21:31.314Z,360.00
2019-05-09T07:22:31.258Z,360.00
2019-05-09T07:23:31.247Z,354.38
2019-05-09T07:24:31.252Z,343.12
2019-05-09T07:25:31.229Z,337.50
2019-05-09T07:26:31.209Z,337.50
2019-05-09T07:27:31.244Z,331.88
2019-05-09T07:28:31.211Z,348.75
2019-05-09T07:29:31.203Z,365.62
2019-05-09T07:30:31.178Z,365.62
2019-05-09T07:31:31.173Z,371.25
2019-05-09T07:32:31.148Z,371.25
2019-05-09T07:33:31.140Z,376.88
2019-05-09T07:34:31.157Z,388.12
2019-05-09T07:35:31.115Z,388.12
2019-05-09T07:36:31.106Z,376.88
2019-05-09T07:37:31.090Z,371.25
2019-05-09T07:38:31.095Z,376.88
2019-05-09T07:39:31.094Z,376.88
2019-05-09T07:40:31.078Z,365.62
2019-05-09T07:41:33.614Z,354.38
2019-05-09T07:42:31.053Z,343.12
2019-05-09T07:43:31.074Z,337.50
2019-05-09T07:44:45.247Z,337.50
2019-05-09T07:45:32.054Z,326.25
2019-05-09T07:46:30.994Z,320.62
2019-05-09T07:47:30.986Z,326.25
2019-05-09T07:48:30.996Z,337.50
2019-05-09T07:49:30.964Z,348.75
2019-05-09T07:50:30.967Z,371.25
2019-05-09T07:51:30.941Z,399.38
2019-05-09T07:52:30.931Z,427.50
2019-05-09T07:53:30.970Z,455.62
2019-05-09T07:54:30.909Z,495.00
2019-05-09T07:55:30.926Z,517.50
2019-05-09T07:56:30.882Z,545.62
2019-05-09T07:57:30.875Z,545.62
2019-05-09T07:58:30.861Z,540.00
2019-05-09T07:59:30.880Z,534.38
2019-05-09T08:00:30.880Z,534.38
2019-05-09T08:01:30.834Z,528.75
2019-05-09T08:02:30.843Z,534.38
2019-05-09T08:03:30.840Z,528.75
2019-05-09T08:04:30.803Z,534.38
2019-05-09T08:05:30.883Z,534.38
2019-05-09T08:06:30.785Z,534.38
2019-05-09T08:07:30.798Z,540.00
2019-05-09T08:08:30.774Z,540.00
2019-05-09T08:09:30.758Z,534.38
2019-05-09T08:10:33.313Z,517.50
2019-05-09T08:11:32.334Z,495.00
2019-05-09T08:12:30.711Z,483.75
2019-05-09T08:13:30.705Z,472.50
2019-05-09T08:14:30.697Z,466.88
2019-05-09T08:15:30.805Z,461.25
2019-05-09T08:16:30.739Z,461.25
2019-05-09T08:17:30.659Z,472.50
2019-05-09T08:18:30.644Z,489.38
2019-05-09T08:19:30.635Z,517.50
2019-05-09T08:20:30.665Z,556.88
2019-05-09T08:21:30.614Z,585.00
2019-05-09T08:22:32.176Z,601.88
2019-05-09T08:23:30.596Z,613.12
2019-05-09T08:24:30.581Z,618.75
2019-05-09T08:25:30.608Z,618.75
2019-05-09T08:26:30.562Z,618.75
2019-05-09T08:27:30.554Z,618.75
2019-05-09T08:28:30.551Z,613.12
2019-05-09T08:29:30.528Z,601.88
2019-05-09T08:30:35.879Z,590.62
2019-05-09T08:31:31.522Z,579.38
2019-05-09T08:32:30.492Z,562.50
2019-05-09T08:33:30.485Z,545.62
2019-05-09T08:34:30.475Z,534.38
2019-05-09T08:35:30.455Z,534.38
2019-05-09T08:36:30.464Z,523.12
2019-05-09T08:37:30.454Z,517.50
2019-05-09T08:38:30.427Z,528.75
2019-05-09T08:39:30.429Z,523.12
2019-05-09T08:40:30.434Z,545.62
2019-05-09T08:41:30.446Z,596.25
2019-05-09T08:42:30.392Z,607.50
2019-05-09T08:43:30.375Z,630.00
2019-05-09T08:44:31.381Z,613.12
2019-05-09T08:45:31.596Z,585.00
2019-05-09T08:46:30.537Z,585.00
2019-05-09T08:47:31.138Z,590.62
2019-05-09T08:48:30.335Z,585.00
2019-05-09T08:49:30.311Z,585.00
2019-05-09T08:50:30.299Z,590.62
2019-05-09T08:51:36.833Z,596.25
2019-05-09T08:52:31.278Z,585.00
2019-05-09T08:53:30.266Z,562.50
2019-05-09T08:54:30.260Z,562.50
2019-05-09T08:55:30.240Z,556.88
2019-05-09T08:56:30.251Z,579.38
2019-05-09T08:57:30.227Z,596.25
2019-05-09T08:58:30.215Z,596.25
2019-05-09T08:59:30.221Z,596.25
2019-05-09T09:00:30.192Z,573.75
2019-05-09T09:01:49.954Z,596.25
2019-05-09T09:02:31.164Z,635.62
2019-05-09T09:03:30.162Z,663.75
2019-05-09T09:04:30.180Z,669.38
2019-05-09T09:05:30.173Z,652.50
2019-05-09T09:06:30.150Z,680.62
2019-05-09T09:07:30.115Z,691.88
2019-05-09T09:08:30.096Z,697.50
2019-05-09T09:09:30.094Z,669.38
2019-05-09T09:10:30.648Z,675.00
2019-05-09T09:11:30.094Z,759.38
2019-05-09T09:12:34.248Z,736.88
2019-05-09T09:13:30.058Z,635.62
2019-05-09T09:14:30.030Z,506.25
2019-05-09T09:15:56.041Z,534.38
2019-05-09T09:16:31.033Z,618.75
2019-05-09T09:17:30.024Z,658.12
2019-05-09T09:18:29.998Z,675.00
2019-05-09T09:19:30.012Z,579.38
2019-05-09T09:20:29.975Z,517.50
2019-05-09T09:21:30.174Z,461.25
2019-05-09T09:22:29.952Z,461.25
2019-05-09T09:23:43.150Z,500.62
2019-05-09T09:24:30.927Z,511.88
2019-05-09T09:25:29.917Z,500.62
2019-05-09T09:26:30.168Z,495.00
2019-05-09T09:27:29.894Z,495.00
2019-05-09T09:28:29.895Z,495.00
2019-05-09T09:29:29.880Z,528.75
2019-05-09T09:30:30.023Z,545.62
2019-05-09T09:31:29.986Z,568.12
2019-05-09T09:32:29.883Z,624.38
2019-05-09T09:33:29.829Z,675.00
2019-05-09T09:34:30.134Z,736.88
2019-05-09T09:35:29.809Z,781.88
2019-05-09T09:36:29.816Z,810.00
2019-05-09T09:37:44.936Z,843.75
2019-05-09T09:38:30.780Z,832.50
2019-05-09T09:39:31.382Z,804.38
2019-05-09T09:40:29.750Z,770.62
2019-05-09T09:41:29.762Z,742.50
2019-05-09T09:42:29.732Z,714.38
2019-05-09T09:43:29.729Z,675.00
2019-05-09T09:44:29.732Z,658.12
2019-05-09T09:45:29.738Z,624.38
2019-05-09T09:46:29.743Z,607.50
2019-05-09T09:47:29.680Z,585.00
2019-05-09T09:48:29.660Z,613.12
2019-05-09T09:49:29.674Z,601.88
2019-05-09T09:50:29.643Z,607.50
2019-05-09T09:51:29.638Z,618.75
2019-05-09T09:52:34.028Z,579.38
2019-05-09T09:53:29.658Z,607.50
2019-05-09T09:54:29.597Z,601.88
2019-05-09T09:55:29.598Z,551.25
2019-05-09T09:56:29.603Z,523.12
2019-05-09T09:57:29.612Z,601.88
2019-05-09T09:58:29.559Z,630.00
2019-05-09T09:59:29.563Z,646.88
2019-05-09T10:00:29.540Z,697.50
2019-05-09T10:01:29.525Z,697.50
2019-05-09T10:02:29.707Z,680.62
2019-05-09T10:03:29.503Z,703.12
2019-05-09T10:04:29.498Z,736.88
2019-05-09T10:05:29.479Z,708.75
2019-05-09T10:06:29.471Z,691.88
2019-05-09T10:07:29.477Z,691.88
2019-05-09T10:08:29.495Z,691.88
2019-05-09T10:09:29.444Z,686.25
2019-05-09T10:10:29.441Z,697.50
2019-05-09T10:11:29.417Z,714.38
2019-05-09T10:12:29.505Z,742.50
2019-05-09T10:13:29.393Z,759.38
2019-05-09T10:14:29.385Z,759.38
2019-05-09T10:15:29.375Z,748.12
2019-05-09T10:16:32.535Z,759.38
2019-05-09T10:17:29.343Z,753.75
2019-05-09T10:18:29.355Z,753.75
2019-05-09T10:19:29.331Z,776.25
2019-05-09T10:20:29.317Z,770.62
2019-05-09T10:21:29.319Z,759.38
2019-05-09T10:22:29.305Z,748.12
2019-05-09T10:23:29.310Z,753.75
2019-05-09T10:24:29.270Z,753.75
2019-05-09T10:25:29.294Z,759.38
2019-05-09T10:26:29.274Z,765.00
2019-05-09T10:27:29.256Z,781.88
2019-05-09T10:28:30.017Z,804.38
2019-05-09T10:29:29.218Z,832.50
2019-05-09T10:30:29.208Z,855.00
2019-05-09T10:31:29.198Z,883.12
2019-05-09T10:32:29.198Z,900.00
2019-05-09T10:33:29.201Z,922.50
2019-05-09T10:34:29.164Z,950.62
2019-05-09T10:35:29.176Z,956.25
2019-05-09T10:36:29.140Z,961.88
2019-05-09T10:37:29.243Z,961.88
2019-05-09T10:38:29.142Z,961.88
2019-05-09T10:39:29.111Z,939.38
2019-05-09T10:40:29.116Z,928.12
2019-05-09T10:41:29.105Z,883.12
2019-05-09T10:42:29.092Z,838.12
2019-05-09T10:43:35.581Z,787.50
2019-05-09T10:44:30.084Z,720.00
2019-05-09T10:45:29.077Z,697.50
2019-05-09T10:46:47.664Z,630.00
2019-05-09T10:47:30.024Z,579.38
2019-05-09T10:48:29.040Z,545.62
2019-05-09T10:49:29.013Z,500.62
2019-05-09T10:50:33.838Z,444.38
2019-05-09T10:51:29.978Z,388.12
2019-05-09T10:52:28.964Z,337.50
2019-05-09T10:53:28.995Z,303.75
2019-05-09T10:54:28.958Z,270.00
2019-05-09T10:55:28.946Z,253.12
2019-05-09T10:56:28.924Z,247.50
2019-05-09T10:57:31.513Z,258.75
2019-05-09T10:58:28.948Z,286.88
2019-05-09T10:59:28.902Z,309.38
2019-05-09T11:00:28.985Z,331.88
2019-05-09T11:01:29.631Z,348.75
2019-05-09T11:02:28.862Z,365.62
2019-05-09T11:03:29.020Z,388.12
2019-05-09T11:04:28.926Z,382.50
2019-05-09T11:05:28.829Z,382.50
2019-05-09T11:06:29.181Z,376.88
2019-05-09T11:07:29.131Z,371.25
2019-05-09T11:08:28.837Z,365.62
2019-05-09T11:09:29.283Z,365.62
2019-05-09T11:10:32.496Z,354.38
2019-05-09T11:11:28.997Z,348.75
2019-05-09T11:12:28.769Z,348.75
2019-05-09T11:13:28.903Z,348.75
2019-05-09T11:14:36.600Z,354.38
2019-05-09T11:15:29.756Z,371.25
2019-05-09T11:16:41.900Z,399.38
2019-05-09T11:17:29.773Z,438.75
2019-05-09T11:18:28.781Z,466.88
2019-05-09T11:19:28.925Z,500.62
2019-05-09T11:20:28.670Z,556.88
2019-05-09T11:21:28.991Z,624.38
2019-05-09T11:22:29.420Z,725.62
2019-05-09T11:23:29.280Z,871.88
2019-05-09T11:24:41.094Z,1001.25
2019-05-09T11:25:29.614Z,1158.75
2019-05-09T11:26:28.980Z,1462.50
2019-05-09T11:27:29.376Z,1293.75
2019-05-09T11:28:28.722Z,1215.00
2019-05-09T11:29:28.607Z,1068.75
2019-05-09T11:30:28.581Z,1023.75
2019-05-09T11:31:29.584Z,1046.25
2019-05-09T11:32:28.545Z,956.25
2019-05-09T11:33:28.531Z,916.88
2019-05-09T11:34:28.556Z,905.62
2019-05-09T11:35:28.516Z,939.38
2019-05-09T11:36:28.522Z,1085.62
2019-05-09T11:37:28.501Z,1068.75
2019-05-09T11:38:34.815Z,984.38
2019-05-09T11:39:36.608Z,984.38
2019-05-09T11:40:29.479Z,1006.88
2019-05-09T11:41:29.607Z,1175.62
2019-05-09T11:42:28.686Z,1535.62
2019-05-09T11:43:29.886Z,2137.50
2019-05-09T11:44:28.413Z,2868.75
2019-05-09T11:45:28.421Z,1445.62
2019-05-09T11:46:29.020Z,2008.12
2019-05-09T11:47:36.574Z,1603.12
2019-05-09T11:48:29.379Z,2655.00
2019-05-09T11:49:29.505Z,3330.00
2019-05-09T11:50:28.385Z,3442.50
2019-05-09T11:51:29.413Z,3555.00
2019-05-09T11:52:29.009Z,3549.38
2019-05-09T11:53:28.920Z,3335.62
2019-05-09T11:54:28.328Z,3200.62
2019-05-09T11:55:35.433Z,3273.75
2019-05-09T11:56:29.293Z,3144.38
2019-05-09T11:57:31.281Z,3155.62
2019-05-09T11:58:28.261Z,3195.00
2019-05-09T11:59:28.291Z,3363.75
2019-05-09T12:00:29.428Z,3093.75
2019-05-09T12:01:29.217Z,3346.88
2019-05-09T12:02:28.241Z,3386.25
2019-05-09T12:03:28.210Z,3228.75
2019-05-09T12:04:28.318Z,804.38
2019-05-09T12:05:28.892Z,669.38
2019-05-09T12:06:29.292Z,1068.75
2019-05-09T12:07:28.843Z,540.00
2019-05-09T12:08:28.148Z,472.50
2019-05-09T12:09:28.832Z,472.50
2019-05-09T12:10:28.712Z,489.38
2019-05-09T12:11:28.154Z,523.12
2019-05-09T12:12:28.396Z,500.62
2019-05-09T12:13:28.096Z,534.38
2019-05-09T12:14:28.093Z,562.50
2019-05-09T12:15:29.019Z,607.50
2019-05-09T12:16:28.211Z,646.88
2019-05-09T12:17:40.773Z,725.62
2019-05-09T12:18:29.051Z,703.12
2019-05-09T12:19:29.544Z,753.75
2019-05-09T12:20:28.026Z,776.25
2019-05-09T12:21:28.559Z,641.25
2019-05-09T12:22:28.119Z,489.38
2019-05-09T12:23:29.123Z,371.25
2019-05-09T12:24:29.611Z,292.50
2019-05-09T12:25:28.455Z,253.12
2019-05-09T12:26:29.131Z,225.00
2019-05-09T12:27:28.205Z,213.75
2019-05-09T12:28:27.961Z,236.25
2019-05-09T12:29:28.798Z,270.00
2019-05-09T12:30:28.475Z,337.50
2019-05-09T12:31:28.809Z,438.75
2019-05-09T12:32:28.493Z,511.88
2019-05-09T12:33:28.804Z,568.12
2019-05-09T12:34:27.888Z,596.25
2019-05-09T12:35:27.876Z,596.25
2019-05-09T12:36:28.587Z,573.75
2019-05-09T12:37:28.278Z,635.62
2019-05-09T12:38:27.902Z,911.25
2019-05-09T12:39:27.836Z,781.88
2019-05-09T12:40:27.837Z,663.75
2019-05-09T12:41:31.496Z,590.62
2019-05-09T12:42:28.821Z,556.88
2019-05-09T12:43:28.381Z,562.50
2019-05-09T12:44:28.788Z,556.88
2019-05-09T12:45:27.771Z,506.25